createdAt,value
2019-03-22T00:02:24.915Z,2.70
2019-03-22T00:04:56.341Z,1.90
2019-03-22T00:07:27.824Z,2.00
2019-03-22T00:09:59.359Z,2.35
2019-03-22T00:12:30.855Z,2.20
2019-03-22T00:15:02.434Z,2.00
2019-03-22T00:17:33.878Z,2.27
2019-03-22T00:20:05.961Z,2.00
2019-03-22T00:22:37.408Z,2.65
2019-03-22T00:25:09.759Z,4.33
2019-03-22T00:27:41.409Z,5.95
2019-03-22T00:30:14.577Z,3.42
2019-03-22T00:32:46.038Z,6.65
2019-03-22T00:35:17.421Z,13.00
2019-03-22T00:37:48.812Z,16.57
2019-03-22T00:40:20.252Z,15.50
2019-03-22T00:42:52.656Z,15.43
2019-03-22T00:45:24.133Z,11.65
2019-03-22T00:47:57.178Z,9.48
2019-03-22T00:50:28.641Z,8.35
2019-03-22T00:53:00.109Z,4.70
2019-03-22T00:55:31.631Z,4.37
2019-03-22T00:58:03.237Z,4.55
2019-03-22T01:00:36.522Z,4.78
2019-03-22T01:03:07.896Z,2.65
2019-03-22T01:05:39.406Z,3.00
2019-03-22T01:08:12.753Z,2.22
2019-03-22T01:10:44.209Z,1.57
2019-03-22T01:13:15.600Z,2.08
2019-03-22T01:15:47.174Z,1.90
2019-03-22T01:18:18.573Z,1.85
2019-03-22T01:20:49.984Z,1.70
2019-03-22T01:23:21.424Z,1.77
2019-03-22T01:25:52.826Z,1.77
2019-03-22T01:28:24.200Z,2.77
2019-03-22T01:30:55.915Z,5.12
2019-03-22T01:33:27.293Z,5.08
2019-03-22T01:35:58.728Z,3.17
2019-03-22T01:38:30.145Z,1.75
2019-03-22T01:41:01.528Z,1.67
2019-03-22T01:43:32.889Z,1.47
2019-03-22T01:46:04.577Z,1.70
2019-03-22T01:48:36.845Z,1.47
2019-03-22T01:51:09.354Z,1.70
2019-03-22T01:53:40.808Z,2.45
2019-03-22T01:56:12.232Z,2.77
2019-03-22T01:58:43.646Z,2.65
2019-03-22T02:01:15.054Z,2.90
2019-03-22T02:03:46.575Z,2.42
2019-03-22T02:06:18.055Z,1.72
2019-03-22T02:08:49.406Z,1.40
2019-03-22T02:11:20.864Z,1.60
2019-03-22T02:13:52.290Z,1.77
2019-03-22T02:16:23.900Z,1.57
2019-03-22T02:18:55.310Z,1.77
2019-03-22T02:21:26.654Z,1.62
2019-03-22T02:23:58.415Z,1.67
2019-03-22T02:26:29.797Z,1.52
2019-03-22T02:29:01.272Z,1.65
2019-03-22T02:31:32.770Z,1.70
2019-03-22T02:34:04.183Z,1.85
2019-03-22T02:36:35.992Z,1.60
2019-03-22T02:39:08.326Z,1.80
2019-03-22T02:41:39.918Z,2.80
2019-03-22T02:44:11.260Z,6.87
2019-03-22T02:46:42.813Z,10.15
2019-03-22T02:49:14.704Z,16.80
2019-03-22T02:51:46.238Z,20.70
2019-03-22T02:54:17.816Z,11.68
2019-03-22T02:56:49.265Z,6.80
2019-03-22T02:59:20.697Z,3.70
2019-03-22T03:01:53.349Z,2.17
2019-03-22T03:04:24.926Z,2.20
2019-03-22T03:06:56.848Z,2.45
2019-03-22T03:09:28.525Z,3.50
2019-03-22T03:12:00.055Z,4.00
2019-03-22T03:14:31.695Z,4.37
2019-03-22T03:17:03.263Z,3.65
2019-03-22T03:19:34.891Z,4.37
2019-03-22T03:22:06.637Z,3.10
2019-03-22T03:24:38.415Z,3.00
2019-03-22T03:27:09.970Z,2.83
2019-03-22T03:29:41.739Z,2.40
2019-03-22T03:32:14.279Z,2.95
2019-03-22T03:34:46.224Z,2.87
2019-03-22T03:37:17.836Z,2.50
2019-03-22T03:39:49.301Z,1.87
2019-03-22T03:42:20.765Z,1.62
2019-03-22T03:44:53.154Z,1.50
2019-03-22T03:47:25.268Z,1.70
2019-03-22T03:49:56.974Z,2.25
2019-03-22T03:52:28.882Z,2.55
2019-03-22T03:55:01.340Z,3.40
2019-03-22T03:57:33.130Z,4.40
2019-03-22T04:00:05.338Z,7.55
2019-03-22T04:02:36.759Z,8.50
2019-03-22T04:05:08.914Z,8.00
2019-03-22T04:07:40.272Z,6.33
2019-03-22T04:10:12.142Z,6.00
2019-03-22T04:12:44.692Z,6.50
2019-03-22T04:15:16.513Z,6.80
2019-03-22T04:17:48.406Z,5.00
2019-03-22T04:20:19.955Z,4.47
2019-03-22T04:22:51.427Z,4.10
2019-03-22T04:25:22.980Z,4.15
2019-03-22T04:27:54.605Z,4.72
2019-03-22T04:30:26.100Z,8.38
2019-03-22T04:32:58.272Z,11.05
2019-03-22T04:35:30.922Z,12.50
2019-03-22T04:38:02.385Z,11.57
2019-03-22T04:40:36.062Z,12.90
2019-03-22T04:43:09.453Z,14.05
2019-03-22T04:45:45.001Z,14.35
2019-03-22T04:48:24.505Z,16.27
2019-03-22T04:51:00.706Z,16.93
2019-03-22T04:53:47.429Z,16.17
2019-03-22T04:56:22.250Z,15.93
2019-03-22T04:58:55.064Z,19.55
2019-03-22T05:01:28.360Z,18.30
2019-03-22T05:04:00.109Z,16.25
2019-03-22T05:06:33.625Z,15.53
2019-03-22T05:09:08.873Z,15.53
2019-03-22T05:11:41.225Z,14.10
2019-03-22T05:14:15.084Z,15.72
2019-03-22T05:16:49.729Z,17.75
2019-03-22T05:19:23.679Z,18.50
2019-03-22T05:21:57.332Z,17.02
2019-03-22T05:24:30.894Z,16.15
2019-03-22T05:27:02.580Z,14.78
2019-03-22T05:29:38.888Z,13.98
2019-03-22T05:32:13.385Z,14.25
2019-03-22T05:34:44.766Z,14.95
2019-03-22T05:37:16.136Z,13.65
2019-03-22T05:39:48.499Z,10.80
2019-03-22T05:42:19.817Z,7.40
2019-03-22T05:44:53.229Z,6.45
2019-03-22T05:47:24.684Z,6.25
2019-03-22T05:49:56.124Z,5.72
2019-03-22T05:52:27.509Z,4.50
2019-03-22T05:54:58.987Z,3.12
2019-03-22T05:57:30.421Z,2.77
2019-03-22T06:00:01.783Z,2.98
2019-03-22T06:02:33.160Z,3.40
2019-03-22T06:05:04.842Z,3.42
2019-03-22T06:07:37.140Z,3.80
2019-03-22T06:10:09.040Z,5.97
2019-03-22T06:12:40.432Z,6.97
2019-03-22T06:15:12.038Z,10.98
2019-03-22T06:17:51.525Z,11.33
2019-03-22T06:20:16.422Z,11.68
2019-03-22T06:22:47.794Z,12.23
2019-03-22T06:25:19.167Z,13.90
2019-03-22T06:27:50.558Z,14.40
2019-03-22T06:30:21.980Z,14.53
2019-03-22T06:32:53.400Z,14.50
2019-03-22T06:35:24.797Z,14.33
2019-03-22T06:37:56.145Z,12.33
2019-03-22T06:40:27.510Z,10.55
2019-03-22T06:42:58.889Z,9.80
2019-03-22T06:45:30.256Z,11.33
2019-03-22T06:48:01.682Z,11.43
2019-03-22T06:50:33.356Z,13.65
2019-03-22T06:53:04.737Z,14.47
2019-03-22T06:55:36.695Z,15.35
2019-03-22T06:58:08.137Z,15.30
2019-03-22T07:00:39.768Z,12.55
2019-03-22T07:03:11.258Z,11.80
2019-03-22T07:05:43.036Z,10.30
2019-03-22T07:08:15.205Z,7.05
2019-03-22T07:10:46.589Z,6.17
2019-03-22T07:13:17.945Z,6.85
2019-03-22T07:15:49.632Z,6.35
2019-03-22T07:18:21.041Z,5.72
2019-03-22T07:20:54.839Z,7.30
2019-03-22T07:23:26.227Z,8.60
2019-03-22T07:25:57.585Z,8.15
2019-03-22T07:28:28.943Z,7.83
2019-03-22T07:31:00.412Z,6.47
2019-03-22T07:33:31.789Z,7.15
2019-03-22T07:36:03.168Z,6.17
2019-03-22T07:38:34.516Z,6.87
2019-03-22T07:41:05.903Z,6.33
2019-03-22T07:43:37.269Z,9.15
2019-03-22T07:46:08.678Z,8.40
2019-03-22T07:48:40.025Z,7.72
2019-03-22T07:51:11.502Z,9.90
2019-03-22T07:53:42.860Z,11.30
2019-03-22T07:56:14.241Z,12.70
2019-03-22T07:58:45.593Z,10.35
2019-03-22T08:01:16.974Z,8.95
2019-03-22T08:03:48.358Z,7.58
2019-03-22T08:06:19.739Z,8.85
2019-03-22T08:08:51.086Z,10.90
2019-03-22T08:11:24.659Z,10.08
2019-03-22T08:13:55.409Z,9.63
2019-03-22T08:16:26.772Z,6.20
2019-03-22T08:18:58.267Z,4.62
2019-03-22T08:21:29.726Z,3.62
2019-03-22T08:24:02.155Z,3.05
2019-03-22T08:26:33.563Z,2.95
2019-03-22T08:29:05.112Z,2.85
2019-03-22T08:31:36.476Z,2.22
2019-03-22T08:34:07.824Z,2.58
2019-03-22T08:36:39.209Z,2.70
2019-03-22T08:39:10.942Z,2.90
2019-03-22T08:41:42.307Z,2.52
2019-03-22T08:44:13.729Z,2.75
2019-03-22T08:46:45.313Z,2.62
2019-03-22T08:49:16.749Z,2.70
2019-03-22T08:51:49.620Z,2.50
2019-03-22T08:54:21.365Z,2.62
2019-03-22T08:56:52.753Z,4.40
2019-03-22T08:59:24.086Z,4.37
2019-03-22T09:01:55.468Z,2.75
2019-03-22T09:04:27.936Z,2.45
2019-03-22T09:06:59.482Z,2.17
2019-03-22T09:09:40.988Z,2.37
2019-03-22T09:12:03.971Z,2.62
2019-03-22T09:14:35.357Z,2.47
2019-03-22T09:17:06.810Z,2.70
2019-03-22T09:19:38.223Z,2.37
2019-03-22T09:22:09.689Z,2.42
2019-03-22T09:24:41.133Z,2.83
2019-03-22T09:27:12.674Z,2.92
2019-03-22T09:29:44.069Z,3.05
2019-03-22T09:32:15.534Z,2.90
2019-03-22T09:34:46.948Z,4.70
2019-03-22T09:37:18.270Z,8.50
2019-03-22T09:39:49.626Z,9.30
2019-03-22T09:42:21.138Z,7.55
2019-03-22T09:44:52.613Z,7.97
2019-03-22T09:47:24.242Z,8.18
2019-03-22T09:49:55.626Z,7.12
2019-03-22T09:52:27.043Z,7.62
2019-03-22T09:55:12.217Z,4.58
2019-03-22T09:57:31.496Z,3.15
2019-03-22T10:00:03.043Z,4.00
2019-03-22T10:02:34.875Z,4.15
2019-03-22T10:05:07.190Z,6.00
2019-03-22T10:07:38.577Z,6.90
2019-03-22T10:10:10.215Z,9.08
2019-03-22T10:12:42.015Z,12.18
2019-03-22T10:15:13.561Z,9.98
2019-03-22T10:17:44.936Z,9.78
2019-03-22T10:20:16.408Z,8.10
2019-03-22T10:22:54.981Z,8.58
2019-03-22T10:25:29.739Z,5.55
2019-03-22T10:28:09.877Z,4.35
2019-03-22T10:30:41.736Z,4.95
2019-03-22T10:33:22.934Z,7.42
2019-03-22T10:35:59.280Z,7.95
2019-03-22T10:38:32.968Z,8.05
2019-03-22T10:41:05.200Z,7.20
2019-03-22T10:43:36.604Z,6.60
2019-03-22T10:46:08.244Z,3.87
2019-03-22T10:48:40.886Z,3.95
2019-03-22T10:51:12.851Z,4.10
2019-03-22T10:53:44.256Z,6.85
2019-03-22T10:56:15.629Z,4.12
2019-03-22T10:58:47.010Z,6.12
2019-03-22T11:01:18.378Z,6.95
2019-03-22T11:03:49.949Z,4.83
2019-03-22T11:06:26.172Z,7.47
2019-03-22T11:08:54.557Z,13.60
2019-03-22T11:11:25.950Z,9.98
2019-03-22T11:13:57.328Z,4.55
2019-03-22T11:16:28.768Z,3.20
2019-03-22T11:19:00.168Z,3.10
2019-03-22T11:21:31.523Z,4.22
2019-03-22T11:24:02.918Z,3.87
2019-03-22T11:26:35.497Z,6.05
2019-03-22T11:29:06.988Z,5.62
2019-03-22T11:31:40.200Z,5.30
2019-03-22T11:34:11.836Z,5.37
2019-03-22T11:36:43.288Z,3.45
2019-03-22T11:39:15.697Z,3.33
2019-03-22T11:41:47.405Z,2.72
2019-03-22T11:44:18.904Z,4.05
2019-03-22T11:46:50.369Z,4.70
2019-03-22T11:49:21.764Z,6.15
2019-03-22T11:51:53.128Z,4.65
2019-03-22T11:54:24.528Z,7.15
2019-03-22T11:56:55.997Z,6.03
2019-03-22T11:59:27.461Z,5.90
2019-03-22T12:01:58.812Z,5.80
2019-03-22T12:04:30.205Z,7.80
2019-03-22T12:07:01.687Z,12.33
2019-03-22T12:09:33.072Z,13.60
2019-03-22T12:12:04.574Z,15.25
2019-03-22T12:14:35.976Z,11.22
2019-03-22T12:17:07.349Z,5.67
2019-03-22T12:19:39.740Z,4.92
2019-03-22T12:22:11.116Z,4.42
2019-03-22T12:24:42.485Z,3.85
2019-03-22T12:27:13.974Z,3.05
2019-03-22T12:29:45.364Z,3.90
2019-03-22T12:32:16.736Z,5.60
2019-03-22T12:34:48.123Z,8.93
2019-03-22T12:37:19.464Z,13.98
2019-03-22T12:39:50.853Z,21.33
2019-03-22T12:42:22.348Z,22.17
2019-03-22T12:44:53.706Z,16.73
2019-03-22T12:47:25.089Z,19.73
2019-03-22T12:49:56.440Z,17.98
2019-03-22T12:52:27.821Z,20.97
2019-03-22T12:54:59.217Z,21.75
2019-03-22T12:57:30.585Z,14.90
2019-03-22T13:00:01.973Z,16.80
2019-03-22T13:02:41.993Z,15.23
2019-03-22T13:05:07.316Z,17.98
2019-03-22T13:07:38.798Z,15.63
2019-03-22T13:10:11.601Z,14.20
2019-03-22T13:12:43.056Z,17.98
2019-03-22T13:15:14.768Z,16.48
2019-03-22T13:17:46.150Z,16.37
2019-03-22T13:20:17.753Z,15.08
2019-03-22T13:22:49.113Z,15.25
2019-03-22T13:25:21.304Z,14.68
2019-03-22T13:27:52.896Z,16.05
2019-03-22T13:30:35.873Z,14.65
2019-03-22T13:33:07.438Z,14.43
2019-03-22T13:35:38.893Z,12.03
2019-03-22T13:38:10.283Z,13.18
2019-03-22T13:40:41.656Z,14.53
2019-03-22T13:43:13.028Z,27.45
2019-03-22T13:45:44.438Z,16.05
2019-03-22T13:48:16.176Z,14.28
2019-03-22T13:50:47.552Z,13.32
2019-03-22T13:53:18.916Z,14.95
2019-03-22T13:55:53.356Z,17.25
2019-03-22T13:58:24.816Z,17.15
2019-03-22T14:00:56.184Z,15.13
2019-03-22T14:03:27.550Z,11.30
2019-03-22T14:05:58.943Z,13.48
2019-03-22T14:08:30.318Z,10.72
2019-03-22T14:11:01.728Z,9.88
2019-03-22T14:13:33.137Z,7.83
2019-03-22T14:16:04.496Z,8.53
2019-03-22T14:18:35.848Z,7.42
2019-03-22T14:21:07.328Z,6.12
2019-03-22T14:23:38.717Z,4.35
2019-03-22T14:26:10.081Z,3.12
2019-03-22T14:28:41.429Z,2.80
2019-03-22T14:31:12.794Z,2.80
2019-03-22T14:33:44.176Z,3.70
2019-03-22T14:36:15.527Z,2.25
2019-03-22T14:38:46.977Z,3.45
2019-03-22T14:41:18.356Z,2.35
2019-03-22T14:43:49.700Z,2.62
2019-03-22T14:46:21.073Z,3.65
2019-03-22T14:48:52.420Z,3.70
2019-03-22T14:51:23.764Z,4.37
2019-03-22T14:53:55.120Z,4.45
2019-03-22T14:56:26.492Z,5.95
2019-03-22T14:59:01.948Z,6.50
2019-03-22T15:01:33.319Z,7.83
2019-03-22T15:04:04.721Z,6.60
2019-03-22T15:06:37.096Z,6.95
2019-03-22T15:09:09.325Z,6.30
2019-03-22T15:11:41.491Z,5.03
2019-03-22T15:14:37.875Z,3.90
2019-03-22T15:17:43.501Z,3.87
2019-03-22T15:20:32.738Z,3.37
2019-03-22T15:23:36.171Z,5.28
2019-03-22T15:26:25.222Z,8.03
2019-03-22T15:29:24.379Z,11.97
2019-03-22T15:32:13.391Z,11.40
2019-03-22T15:35:18.980Z,11.50
2019-03-22T15:38:14.217Z,8.30
2019-03-22T15:40:45.580Z,7.67
2019-03-22T15:43:16.936Z,10.25
2019-03-22T15:45:48.313Z,9.03
2019-03-22T15:48:19.911Z,11.03
2019-03-22T15:50:51.289Z,11.68
2019-03-22T15:53:22.632Z,14.58
2019-03-22T15:55:54.006Z,12.78
2019-03-22T15:58:25.374Z,14.58
2019-03-22T16:00:56.745Z,14.87
2019-03-22T16:03:28.113Z,13.40
2019-03-22T16:05:59.478Z,13.48
2019-03-22T16:08:30.834Z,13.53
2019-03-22T16:11:02.192Z,16.67
2019-03-22T16:13:33.564Z,19.20
2019-03-22T16:16:04.938Z,19.50
2019-03-22T16:18:36.288Z,20.25
2019-03-22T16:21:09.598Z,19.95
2019-03-22T16:23:41.002Z,21.23
2019-03-22T16:26:12.398Z,20.57
2019-03-22T16:28:43.748Z,17.92
2019-03-22T16:31:15.113Z,18.32
2019-03-22T16:33:54.036Z,19.35
2019-03-22T16:36:19.449Z,19.73
2019-03-22T16:38:50.848Z,18.70
2019-03-22T16:41:22.269Z,17.40
2019-03-22T16:43:54.725Z,15.72
2019-03-22T16:46:26.109Z,16.97
2019-03-22T16:48:57.471Z,15.83
2019-03-22T16:51:28.865Z,16.35
2019-03-22T16:54:00.325Z,18.32
2019-03-22T16:56:31.696Z,19.07
2019-03-22T16:59:03.049Z,19.30
2019-03-22T17:01:34.432Z,16.65
2019-03-22T17:04:05.812Z,18.10
2019-03-22T17:06:37.213Z,18.48
2019-03-22T17:09:09.260Z,20.08
2019-03-22T17:11:41.468Z,20.17
2019-03-22T17:14:12.832Z,19.75
2019-03-22T17:16:44.325Z,17.50
2019-03-22T17:19:15.697Z,18.10
2019-03-22T17:21:47.094Z,18.70
2019-03-22T17:24:18.445Z,18.45
2019-03-22T17:26:49.825Z,17.52
2019-03-22T17:29:21.182Z,14.58
2019-03-22T17:31:52.560Z,13.00
2019-03-22T17:34:23.919Z,14.93
2019-03-22T17:36:56.284Z,13.95
2019-03-22T17:39:28.649Z,17.85
2019-03-22T17:42:00.024Z,18.40
2019-03-22T17:44:31.392Z,18.70
2019-03-22T17:47:02.782Z,18.57
2019-03-22T17:49:34.145Z,17.20
2019-03-22T17:52:05.634Z,17.37
2019-03-22T17:54:37.000Z,19.05
2019-03-22T17:57:08.396Z,21.75
2019-03-22T17:59:39.745Z,22.10
2019-03-22T18:02:11.113Z,22.52
2019-03-22T18:04:42.477Z,22.22
2019-03-22T18:07:13.862Z,20.85
2019-03-22T18:09:45.217Z,25.15
2019-03-22T18:12:16.596Z,24.57
2019-03-22T18:14:47.961Z,25.43
2019-03-22T18:17:19.330Z,25.45
2019-03-22T18:19:51.680Z,21.30
2019-03-22T18:22:24.156Z,23.25
2019-03-22T18:24:55.520Z,22.32
2019-03-22T18:27:26.923Z,23.70
2019-03-22T18:29:58.312Z,24.72
2019-03-22T18:32:29.692Z,24.80
2019-03-22T18:35:01.061Z,25.20
2019-03-22T18:37:32.428Z,26.17
2019-03-22T18:40:03.897Z,25.77
2019-03-22T18:42:35.290Z,27.73
2019-03-22T18:45:07.492Z,173.70
2019-03-22T18:47:38.864Z,87.10
2019-03-22T18:50:10.557Z,33.10
2019-03-22T18:52:44.345Z,15.58
2019-03-22T18:55:16.453Z,8.05
2019-03-22T18:57:48.223Z,6.33
2019-03-22T19:00:22.370Z,5.42
2019-03-22T19:02:54.128Z,3.80
2019-03-22T19:05:25.701Z,3.67
2019-03-22T19:07:57.340Z,3.12
2019-03-22T19:10:29.100Z,3.58
2019-03-22T19:13:02.515Z,3.08
2019-03-22T19:15:34.065Z,3.10
2019-03-22T19:18:05.921Z,3.58
2019-03-22T19:20:37.549Z,3.42
2019-03-22T19:23:09.264Z,3.17
2019-03-22T19:25:40.849Z,3.35
2019-03-22T19:28:12.290Z,3.00
2019-03-22T19:30:43.809Z,2.77
2019-03-22T19:33:16.706Z,3.02
2019-03-22T19:35:48.393Z,2.58
2019-03-22T19:38:20.070Z,3.10
2019-03-22T19:40:51.623Z,2.80
2019-03-22T19:43:23.092Z,2.55
2019-03-22T19:45:54.520Z,2.72
2019-03-22T19:48:27.242Z,3.42
2019-03-22T19:51:00.224Z,4.67
2019-03-22T19:53:31.792Z,6.33
2019-03-22T19:56:03.431Z,9.50
2019-03-22T19:58:34.909Z,11.28
2019-03-22T20:01:06.617Z,14.65
2019-03-22T20:03:38.262Z,13.30
2019-03-22T20:06:09.748Z,7.05
2019-03-22T20:08:41.190Z,7.25
2019-03-22T20:11:12.953Z,6.20
2019-03-22T20:13:44.396Z,6.00
2019-03-22T20:16:16.069Z,5.50
2019-03-22T20:18:47.572Z,4.72
2019-03-22T20:21:18.934Z,4.80
2019-03-22T20:23:53.717Z,5.20
2019-03-22T20:26:24.627Z,4.37
2019-03-22T20:28:56.052Z,4.67
2019-03-22T20:31:27.498Z,4.97
2019-03-22T20:33:58.989Z,4.20
2019-03-22T20:36:30.441Z,4.53
2019-03-22T20:39:01.833Z,4.67
2019-03-22T20:41:34.938Z,3.77
2019-03-22T20:44:06.348Z,3.60
2019-03-22T20:46:40.154Z,3.98
2019-03-22T20:49:12.164Z,3.85
2019-03-22T20:51:43.992Z,2.83
2019-03-22T20:54:15.729Z,3.20
2019-03-22T20:56:48.069Z,2.98
2019-03-22T20:59:19.468Z,3.00
2019-03-22T21:01:50.941Z,2.37
2019-03-22T21:04:22.294Z,2.80
2019-03-22T21:06:53.666Z,2.45
2019-03-22T21:09:25.150Z,2.33
2019-03-22T21:11:56.652Z,3.08
2019-03-22T21:14:30.729Z,2.95
2019-03-22T21:17:01.527Z,2.77
2019-03-22T21:19:33.078Z,2.75
2019-03-22T21:22:05.053Z,2.67
2019-03-22T21:24:36.504Z,2.55
2019-03-22T21:27:15.540Z,2.17
2019-03-22T21:29:44.479Z,3.37
2019-03-22T21:32:14.666Z,3.02
2019-03-22T21:34:46.344Z,2.87
2019-03-22T21:37:18.826Z,3.52
2019-03-22T21:39:50.316Z,3.55
2019-03-22T21:42:21.720Z,3.02
2019-03-22T21:44:53.128Z,2.92
2019-03-22T21:47:29.467Z,3.20
2019-03-22T21:50:01.444Z,4.00
2019-03-22T21:52:32.778Z,4.22
2019-03-22T21:55:05.587Z,4.28
2019-03-22T21:57:37.054Z,3.85
2019-03-22T22:00:09.582Z,4.42
2019-03-22T22:02:41.195Z,4.35
2019-03-22T22:05:12.832Z,4.62
2019-03-22T22:07:44.358Z,4.80
2019-03-22T22:10:15.785Z,4.12
2019-03-22T22:12:47.188Z,4.10
2019-03-22T22:15:18.656Z,4.47
2019-03-22T22:17:50.041Z,4.15
2019-03-22T22:20:28.925Z,4.10
2019-03-22T22:22:54.446Z,3.62
2019-03-22T22:25:25.936Z,4.10
2019-03-22T22:27:57.376Z,3.72
2019-03-22T22:30:28.963Z,4.15
2019-03-22T22:33:00.572Z,3.95
2019-03-22T22:35:31.994Z,4.47
2019-03-22T22:38:03.376Z,3.95
2019-03-22T22:40:34.803Z,4.33
2019-03-22T22:43:06.220Z,3.92
2019-03-22T22:45:37.568Z,4.53
2019-03-22T22:48:08.928Z,4.00
2019-03-22T22:50:40.348Z,4.05
2019-03-22T22:53:11.757Z,3.98
2019-03-22T22:55:43.177Z,4.53
2019-03-22T22:58:14.572Z,3.80
2019-03-22T23:00:47.412Z,4.50
2019-03-22T23:03:19.016Z,5.70
2019-03-22T23:05:50.436Z,4.62
2019-03-22T23:08:21.828Z,5.15
2019-03-22T23:10:53.337Z,4.58
2019-03-22T23:13:25.791Z,4.70
2019-03-22T23:15:57.333Z,4.97
2019-03-22T23:18:28.826Z,5.37
2019-03-22T23:21:00.332Z,5.10
2019-03-22T23:23:31.707Z,4.75
2019-03-22T23:26:03.099Z,3.70
2019-03-22T23:28:34.540Z,4.70
2019-03-22T23:31:06.053Z,4.67
2019-03-22T23:33:37.484Z,4.50
2019-03-22T23:36:19.567Z,3.75
2019-03-22T23:38:41.972Z,4.37
2019-03-22T23:41:13.420Z,4.58
2019-03-22T23:43:44.836Z,4.37
2019-03-22T23:46:16.244Z,5.60
2019-03-22T23:48:47.644Z,7.12
2019-03-22T23:51:19.151Z,9.68
2019-03-22T23:53:51.534Z,9.78
2019-03-22T23:56:22.938Z,11.15
2019-03-22T23:58:54.575Z,12.88
